KSCK/SCK METAR and TAF weather

Enter ICAO airport designator
Station Type Date Time Source
KSCK METAR 2019/08/23 14:55 UTC NOAA

KSCK 231455Z 00000KT 8SM CLR 23/16 A2974 RMK AO2 SLP069 T02330156 53016


Station Type Date Time Source
KSCK Decoded METAR 2019/08/23 14:55 UTC NOAA

Station name not available
Aug 23, 2019 - 10:55 AM EDT / 2019.08.23 1455 UTC
Wind: Calm:0
Visibility: 8 mile(s):0
Sky conditions: clear
Temperature: 73.9 F (23.3 C)
Dew Point: 60.1 F (15.6 C)
Relative Humidity: 61%
Pressure (altimeter): 29.74 in. Hg (1007 hPa)
Pressure tendency: 0.05 inches (1.6 hPa) higher than three hours ago
ob: KSCK 231455Z 00000KT 8SM CLR 23/16 A2974 RMK AO2 SLP069 T02330156 53016
cycle: 15

Station Type Date Time Source
KSCK TAF 2019/08/23 12:34 UTC NOAA

TAF KSCK 231132Z 2312/2412 31009KT P6SM SKC
FM240800 VRB04KT P6SM FEW250

Example: see airport list